createdAt,value
2019-05-13T00:01:20.988Z,2.42
2019-05-13T00:06:24.310Z,1.50
2019-05-13T00:11:27.637Z,1.98
2019-05-13T00:16:30.988Z,3.15
2019-05-13T00:21:34.344Z,1.92
2019-05-13T00:26:37.682Z,2.72
2019-05-13T00:31:40.999Z,2.30
2019-05-13T00:36:44.691Z,2.65
2019-05-13T00:41:48.036Z,2.95
2019-05-13T00:46:53.508Z,2.33
2019-05-13T00:51:56.373Z,1.75
2019-05-13T00:56:59.726Z,3.17
2019-05-13T01:02:03.826Z,1.98
2019-05-13T01:07:15.404Z,1.87
2019-05-13T01:12:13.378Z,3.60
2019-05-13T01:17:16.821Z,1.80
2019-05-13T01:22:20.143Z,2.12
2019-05-13T01:27:23.985Z,2.83
2019-05-13T01:32:27.301Z,2.08
2019-05-13T01:37:41.982Z,2.17
2019-05-13T01:42:35.657Z,1.72
2019-05-13T01:47:38.953Z,1.75
2019-05-13T01:52:44.459Z,3.95
2019-05-13T01:57:47.293Z,1.60
2019-05-13T02:02:50.605Z,3.20
2019-05-13T02:08:00.281Z,1.72
2019-05-13T02:12:59.008Z,1.87
2019-05-13T02:18:04.019Z,2.77
2019-05-13T02:23:07.491Z,2.35
2019-05-13T02:28:10.856Z,1.40
2019-05-13T02:33:14.150Z,1.37
2019-05-13T02:38:24.540Z,2.45
2019-05-13T02:43:23.663Z,1.30
2019-05-13T02:48:27.547Z,1.80
2019-05-13T02:53:33.511Z,1.35
2019-05-13T02:58:35.893Z,2.40
2019-05-13T03:03:39.199Z,1.60
2019-05-13T03:08:49.427Z,1.20
2019-05-13T03:13:47.537Z,1.40
2019-05-13T03:18:52.368Z,2.08
2019-05-13T03:23:55.793Z,2.25
2019-05-13T03:29:02.528Z,1.67
2019-05-13T03:34:06.694Z,1.82
2019-05-13T03:39:14.490Z,2.30
2019-05-13T03:44:14.206Z,2.50
2019-05-13T03:49:17.503Z,2.75
2019-05-13T03:54:22.648Z,1.30
2019-05-13T03:59:25.839Z,2.20
2019-05-13T04:04:36.318Z,1.22
2019-05-13T04:09:42.480Z,3.47
2019-05-13T04:14:44.661Z,1.42
2019-05-13T04:19:47.984Z,2.72
2019-05-13T04:24:53.034Z,3.83
2019-05-13T04:29:56.553Z,4.25
2019-05-13T04:35:03.372Z,6.08
2019-05-13T04:40:06.829Z,8.65
2019-05-13T04:45:12.488Z,12.58
2019-05-13T04:50:15.207Z,13.18
2019-05-13T04:55:18.554Z,12.05
2019-05-13T05:00:49.789Z,17.60
2019-05-13T05:05:54.201Z,9.90
2019-05-13T05:16:54.453Z,12.47
2019-05-13T05:22:13.244Z,9.80
2019-05-13T05:27:34.843Z,14.07
2019-05-13T05:32:47.231Z,14.47
2019-05-13T05:38:12.475Z,17.10
2019-05-13T05:43:16.074Z,17.42
2019-05-13T05:48:19.429Z,11.73
2019-05-13T05:53:23.898Z,13.45
2019-05-13T05:58:28.417Z,10.85
2019-05-13T06:03:32.755Z,10.48
2019-05-13T06:08:36.171Z,9.08
2019-05-13T06:13:41.924Z,9.05
2019-05-13T06:18:44.573Z,8.25
2019-05-13T06:23:47.987Z,14.03
2019-05-13T06:28:52.035Z,8.78
2019-05-13T06:33:55.487Z,6.45
2019-05-13T06:38:58.831Z,16.97
2019-05-13T06:44:02.749Z,12.75
2019-05-13T06:49:06.173Z,12.45
2019-05-13T06:54:11.289Z,12.28
2019-05-13T06:59:14.752Z,14.30
2019-05-13T07:04:18.065Z,11.63
2019-05-13T07:09:21.717Z,14.23
2019-05-13T07:14:25.061Z,12.47
2019-05-13T07:19:28.421Z,15.08
2019-05-13T07:24:32.392Z,10.82
2019-05-13T07:29:35.820Z,13.38
2019-05-13T07:34:39.181Z,15.53
2019-05-13T07:39:42.484Z,11.85
2019-05-13T07:44:45.808Z,11.68
2019-05-13T07:49:51.361Z,11.68
2019-05-13T07:54:54.144Z,9.93
2019-05-13T07:59:57.472Z,10.00
2019-05-13T08:05:02.469Z,10.90
2019-05-13T08:10:06.711Z,10.58
2019-05-13T08:15:11.922Z,11.83
2019-05-13T08:20:15.196Z,10.05
2019-05-13T08:25:18.557Z,10.48
2019-05-13T08:30:22.680Z,12.10
2019-05-13T08:35:26.228Z,10.48
2019-05-13T08:40:31.685Z,9.55
2019-05-13T08:45:34.709Z,7.67
2019-05-13T08:50:38.039Z,8.90
2019-05-13T08:55:42.693Z,8.18
2019-05-13T09:06:02.862Z,6.97
2019-05-13T09:11:07.228Z,7.42
2019-05-13T09:16:13.166Z,6.55
2019-05-13T09:21:15.639Z,5.15
2019-05-13T09:26:19.008Z,8.88
2019-05-13T09:31:22.406Z,8.10
2019-05-13T09:36:25.704Z,7.50
2019-05-13T09:41:29.020Z,5.97
2019-05-13T09:46:32.335Z,5.58
2019-05-13T09:51:35.644Z,7.37
2019-05-13T09:56:41.159Z,7.83
2019-05-13T10:01:44.035Z,8.20
2019-05-13T10:06:47.343Z,5.78
2019-05-13T10:11:51.961Z,4.12
2019-05-13T10:16:55.396Z,4.58
2019-05-13T10:21:58.718Z,6.05
2019-05-13T10:27:02.641Z,7.33
2019-05-13T10:32:06.091Z,7.08
2019-05-13T10:37:11.305Z,4.45
2019-05-13T10:42:14.548Z,6.58
2019-05-13T10:47:17.895Z,4.35
2019-05-13T10:52:22.980Z,6.12
2019-05-13T10:57:26.394Z,3.65
2019-05-13T11:02:32.359Z,5.03
2019-05-13T11:07:34.812Z,7.25
2019-05-13T11:12:38.123Z,3.52
2019-05-13T11:17:42.717Z,6.12
2019-05-13T11:22:46.133Z,5.20
2019-05-13T11:27:52.966Z,5.28
2019-05-13T11:32:55.302Z,5.95
2019-05-13T11:37:58.625Z,4.87
2019-05-13T11:43:01.967Z,6.83
2019-05-13T11:48:05.369Z,4.22
2019-05-13T11:53:30.238Z,3.12
2019-05-13T11:58:14.314Z,3.95
2019-05-13T12:03:17.648Z,4.15
2019-05-13T12:08:22.662Z,6.05
2019-05-13T12:13:26.000Z,5.37
2019-05-13T12:18:29.485Z,10.35
2019-05-13T12:23:32.840Z,6.17
2019-05-13T12:28:36.167Z,8.10
2019-05-13T12:33:39.500Z,6.00
2019-05-13T12:38:44.619Z,5.87
2019-05-13T12:43:47.988Z,4.90
2019-05-13T12:48:51.329Z,7.20
2019-05-13T12:53:54.811Z,6.53
2019-05-13T12:58:58.399Z,5.87
2019-05-13T13:04:02.367Z,4.22
2019-05-13T13:09:06.163Z,6.47
2019-05-13T13:14:14.751Z,3.75
2019-05-13T13:19:15.262Z,3.95
2019-05-13T13:24:18.596Z,4.12
2019-05-13T13:29:22.194Z,3.35
2019-05-13T13:34:26.407Z,4.33
2019-05-13T13:39:31.955Z,4.50
2019-05-13T13:44:35.351Z,4.40
2019-05-13T13:49:38.786Z,3.60
2019-05-13T13:54:44.153Z,7.55
2019-05-13T14:00:16.310Z,5.12
2019-05-13T14:04:54.724Z,2.85
2019-05-13T14:06:25.035Z,11.85
2019-05-13T14:09:57.416Z,5.28
2019-05-13T14:15:02.025Z,3.62
2019-05-13T14:20:06.374Z,6.08
2019-05-13T14:25:11.506Z,5.03
2019-05-13T14:30:14.723Z,6.22
2019-05-13T14:35:18.050Z,4.25
2019-05-13T14:40:22.398Z,5.85
2019-05-13T14:45:25.830Z,4.83
2019-05-13T14:50:31.760Z,6.83
2019-05-13T14:55:34.238Z,11.73
2019-05-13T15:00:37.933Z,17.15
2019-05-13T15:05:42.977Z,13.53
2019-05-13T15:10:46.409Z,15.60
2019-05-13T15:15:51.676Z,15.15
2019-05-13T15:20:54.838Z,13.43
2019-05-13T15:25:58.238Z,14.05
2019-05-13T15:31:01.554Z,19.27
2019-05-13T15:36:04.859Z,19.32
2019-05-13T15:41:08.183Z,26.05
2019-05-13T15:46:12.563Z,21.30
2019-05-13T15:51:16.042Z,15.38
2019-05-13T15:56:21.644Z,13.78
2019-05-13T16:01:24.493Z,15.13
2019-05-13T16:06:27.822Z,11.48
2019-05-13T16:11:32.610Z,14.28
2019-05-13T16:16:36.062Z,11.22
2019-05-13T16:21:41.400Z,13.43
2019-05-13T16:26:44.399Z,9.15
2019-05-13T16:31:47.714Z,11.22
2019-05-13T16:36:53.052Z,19.17
2019-05-13T16:41:56.155Z,26.95
2019-05-13T16:47:01.481Z,14.20
2019-05-13T16:52:04.603Z,12.95
2019-05-13T16:57:07.985Z,13.55
2019-05-13T17:02:12.657Z,11.73
2019-05-13T17:07:16.314Z,8.65
2019-05-13T17:12:21.306Z,15.30
2019-05-13T17:17:24.778Z,12.95
2019-05-13T17:22:28.194Z,6.62
2019-05-13T17:27:31.979Z,11.60
2019-05-13T17:32:35.578Z,9.55
2019-05-13T17:37:42.154Z,12.47
2019-05-13T17:42:45.709Z,9.30
2019-05-13T17:47:49.105Z,9.25
2019-05-13T17:52:52.506Z,11.85
2019-05-13T17:57:55.927Z,9.55
2019-05-13T18:03:01.749Z,10.30
2019-05-13T18:08:04.405Z,10.80
2019-05-13T18:13:07.735Z,9.90
2019-05-13T18:18:11.963Z,8.80
2019-05-13T18:23:15.499Z,11.60
2019-05-13T18:28:28.433Z,7.67
2019-05-13T18:33:23.915Z,8.05
2019-05-13T18:38:27.249Z,5.05
2019-05-13T18:43:32.048Z,6.75
2019-05-13T18:48:35.583Z,7.42
2019-05-13T18:53:41.296Z,6.58
2019-05-13T18:58:43.928Z,5.60
2019-05-13T19:03:47.307Z,5.87
2019-05-13T19:08:52.698Z,6.47
2019-05-13T19:13:55.653Z,5.15
2019-05-13T19:19:11.740Z,7.80
2019-05-13T19:24:04.002Z,5.70
2019-05-13T19:29:07.315Z,2.95
2019-05-13T19:34:12.418Z,5.00
2019-05-13T19:39:15.775Z,5.62
2019-05-13T19:44:19.095Z,6.70
2019-05-13T19:49:32.487Z,5.15
2019-05-13T19:54:27.596Z,5.92
2019-05-13T19:59:32.265Z,4.45
2019-05-13T20:04:35.693Z,3.47
2019-05-13T20:09:39.006Z,6.65
2019-05-13T20:14:42.299Z,5.35
2019-05-13T20:19:50.537Z,4.55
2019-05-13T20:24:51.399Z,8.25
2019-05-13T20:29:54.790Z,4.15
2019-05-13T20:34:58.151Z,5.83
2019-05-13T20:40:02.337Z,3.70
2019-05-13T20:45:06.520Z,4.60
2019-05-13T20:50:12.428Z,3.65
2019-05-13T20:55:15.528Z,4.47
2019-05-13T21:00:18.839Z,5.60
2019-05-13T21:05:22.165Z,4.15
2019-05-13T21:10:25.508Z,5.72
2019-05-13T21:15:28.861Z,3.83
2019-05-13T21:20:32.217Z,3.08
2019-05-13T21:25:35.552Z,8.18
2019-05-13T21:30:38.882Z,2.42
2019-05-13T21:35:42.178Z,4.92
2019-05-13T21:40:45.514Z,4.78
2019-05-13T21:45:48.867Z,4.40
2019-05-13T21:50:52.216Z,2.17
2019-05-13T21:55:55.525Z,3.10
2019-05-13T22:01:01.351Z,3.15
2019-05-13T22:06:04.039Z,2.67
2019-05-13T22:11:07.357Z,4.33
2019-05-13T22:16:10.658Z,6.70
2019-05-13T22:21:13.991Z,3.67
2019-05-13T22:26:17.335Z,2.72
2019-05-13T22:31:22.251Z,4.20
2019-05-13T22:36:25.670Z,2.00
2019-05-13T22:41:31.206Z,3.47
2019-05-13T22:46:34.006Z,5.35
2019-05-13T22:51:37.321Z,3.90
2019-05-13T22:56:41.240Z,2.83
2019-05-13T23:01:44.596Z,3.92
2019-05-13T23:06:47.908Z,2.37
2019-05-13T23:11:51.236Z,2.47
2019-05-13T23:16:54.528Z,2.72
2019-05-13T23:21:57.835Z,3.15
2019-05-13T23:27:02.168Z,3.77
2019-05-13T23:32:05.640Z,1.98
2019-05-13T23:37:11.220Z,1.60
2019-05-13T23:42:13.994Z,5.95
2019-05-13T23:47:17.342Z,3.90
2019-05-13T23:52:21.957Z,4.03
2019-05-13T23:57:25.391Z,1.90
